createdAt,value
2019-03-21T00:00:02.840Z,10.60
2019-03-21T00:01:02.763Z,11.60
2019-03-21T00:02:02.877Z,9.80
2019-03-21T00:03:02.575Z,11.80
2019-03-21T00:04:02.685Z,9.90
2019-03-21T00:05:02.405Z,9.80
2019-03-21T00:06:02.525Z,12.60
2019-03-21T00:07:02.237Z,9.00
2019-03-21T00:08:02.302Z,9.10
2019-03-21T00:09:02.062Z,11.70
2019-03-21T00:10:02.110Z,10.50
2019-03-21T00:11:01.907Z,10.40
2019-03-21T00:12:01.811Z,11.30
2019-03-21T00:13:01.925Z,14.60
2019-03-21T00:14:06.982Z,10.80
2019-03-21T00:15:01.553Z,8.90
2019-03-21T00:16:01.564Z,12.30
2019-03-21T00:17:01.381Z,10.30
2019-03-21T00:18:01.292Z,10.10
2019-03-21T00:19:01.355Z,11.40
2019-03-21T00:20:01.123Z,12.70
2019-03-21T00:21:01.055Z,12.10
2019-03-21T00:22:01.167Z,9.90
2019-03-21T00:23:00.870Z,11.20
2019-03-21T00:24:00.785Z,12.20
2019-03-21T00:25:00.776Z,11.10
2019-03-21T00:26:00.625Z,11.10
2019-03-21T00:27:00.524Z,12.90
2019-03-21T00:28:00.592Z,10.80
2019-03-21T00:29:00.411Z,11.60
2019-03-21T00:30:00.359Z,11.30
2019-03-21T00:31:00.228Z,10.60
2019-03-21T00:32:00.104Z,10.00
2019-03-21T00:33:00.217Z,12.40
2019-03-21T00:33:59.928Z,13.10
2019-03-21T00:35:00.036Z,14.50
2019-03-21T00:35:59.771Z,12.50
2019-03-21T00:36:59.668Z,10.80
2019-03-21T00:37:59.633Z,11.00
2019-03-21T00:38:59.493Z,10.60
2019-03-21T00:39:59.408Z,15.90
2019-03-21T00:40:59.494Z,11.20
2019-03-21T00:41:59.235Z,12.50
2019-03-21T00:42:59.150Z,13.60
2019-03-21T00:43:59.263Z,11.10
2019-03-21T00:44:58.981Z,10.90
2019-03-21T00:45:58.904Z,11.30
2019-03-21T00:46:58.874Z,12.00
2019-03-21T00:47:58.721Z,15.00
2019-03-21T00:48:58.635Z,11.20
2019-03-21T00:49:58.689Z,14.40
2019-03-21T00:50:58.475Z,9.80
2019-03-21T00:51:58.382Z,12.20
2019-03-21T00:52:58.504Z,12.40
2019-03-21T00:53:58.205Z,15.30
2019-03-21T00:54:58.128Z,11.50
2019-03-21T00:55:58.146Z,11.30
2019-03-21T00:56:57.952Z,10.30
2019-03-21T00:57:58.720Z,11.00
2019-03-21T00:58:57.928Z,9.40
2019-03-21T00:59:57.690Z,12.20
2019-03-21T01:00:57.627Z,11.30
2019-03-21T01:01:57.538Z,10.80
2019-03-21T01:02:57.440Z,10.90
2019-03-21T01:03:57.551Z,11.70
2019-03-21T01:04:57.273Z,12.60
2019-03-21T01:05:57.410Z,11.10
2019-03-21T01:06:57.103Z,12.10
2019-03-21T01:07:57.169Z,9.90
2019-03-21T01:08:56.921Z,14.80
2019-03-21T01:09:56.979Z,11.00
2019-03-21T01:10:56.783Z,11.00
2019-03-21T01:11:56.786Z,12.40
2019-03-21T01:12:56.577Z,10.30
2019-03-21T01:13:56.594Z,11.10
2019-03-21T01:14:56.404Z,10.80
2019-03-21T01:15:56.412Z,12.70
2019-03-21T01:16:56.254Z,10.70
2019-03-21T01:17:56.153Z,14.40
2019-03-21T01:18:56.219Z,10.20
2019-03-21T01:19:55.979Z,12.70
2019-03-21T01:20:55.888Z,10.10
2019-03-21T01:21:55.861Z,9.60
2019-03-21T01:22:55.717Z,10.60
2019-03-21T01:23:55.843Z,11.10
2019-03-21T01:24:55.546Z,12.40
2019-03-21T01:25:55.651Z,12.30
2019-03-21T01:26:55.385Z,10.30
2019-03-21T01:27:55.298Z,10.90
2019-03-21T01:28:55.259Z,10.50
2019-03-21T01:29:55.116Z,11.10
2019-03-21T01:30:55.033Z,13.10
2019-03-21T01:31:55.107Z,11.00
2019-03-21T01:32:54.867Z,11.60
2019-03-21T01:33:54.884Z,11.20
2019-03-21T01:34:54.690Z,9.80
2019-03-21T01:35:54.604Z,11.90
2019-03-21T01:36:54.735Z,11.40
2019-03-21T01:37:54.427Z,12.00
2019-03-21T01:38:54.356Z,10.30
2019-03-21T01:39:54.311Z,10.30
2019-03-21T01:40:54.171Z,11.10
2019-03-21T01:41:54.118Z,13.30
2019-03-21T01:42:54.125Z,11.60
2019-03-21T01:43:53.912Z,10.50
2019-03-21T01:44:53.933Z,12.20
2019-03-21T01:45:53.741Z,10.80
2019-03-21T01:46:53.666Z,12.70
2019-03-21T01:47:53.748Z,10.60
2019-03-21T01:48:53.483Z,11.40
2019-03-21T01:49:53.402Z,12.50
2019-03-21T01:50:53.359Z,10.40
2019-03-21T01:51:53.239Z,11.50
2019-03-21T01:52:53.139Z,10.50
2019-03-21T01:53:53.174Z,11.70
2019-03-21T01:54:52.971Z,13.50
2019-03-21T01:55:52.881Z,11.20
2019-03-21T01:56:53.022Z,10.80
2019-03-21T01:57:52.708Z,11.40
2019-03-21T01:58:52.625Z,10.80
2019-03-21T01:59:52.599Z,10.90
2019-03-21T02:00:52.451Z,12.00
2019-03-21T02:01:52.391Z,11.20
2019-03-21T02:02:52.417Z,13.70
2019-03-21T02:03:52.195Z,13.00
2019-03-21T02:04:52.106Z,10.40
2019-03-21T02:05:52.230Z,13.40
2019-03-21T02:06:51.955Z,10.60
2019-03-21T02:07:51.854Z,12.20
2019-03-21T02:08:51.840Z,12.10
2019-03-21T02:09:51.678Z,11.30
2019-03-21T02:10:51.592Z,12.10
2019-03-21T02:11:51.729Z,11.80
2019-03-21T02:12:51.417Z,10.70
2019-03-21T02:13:51.336Z,10.00
2019-03-21T02:14:52.389Z,10.40
2019-03-21T02:15:51.160Z,10.90
2019-03-21T02:16:51.089Z,10.40
2019-03-21T02:17:51.080Z,11.70
2019-03-21T02:18:50.898Z,11.40
2019-03-21T02:19:50.814Z,10.50
2019-03-21T02:20:50.895Z,10.10
2019-03-21T02:21:50.657Z,12.00
2019-03-21T02:22:50.557Z,10.50
2019-03-21T02:23:50.505Z,11.20
2019-03-21T02:24:50.392Z,12.60
2019-03-21T02:25:50.297Z,10.60
2019-03-21T02:26:50.351Z,12.60
2019-03-21T02:27:50.122Z,11.60
2019-03-21T02:28:50.041Z,13.40
2019-03-21T02:29:50.137Z,12.50
2019-03-21T02:30:49.866Z,10.70
2019-03-21T02:31:49.798Z,12.30
2019-03-21T02:32:49.746Z,10.30
2019-03-21T02:33:49.613Z,10.60
2019-03-21T02:34:49.556Z,11.80
2019-03-21T02:35:49.437Z,13.10
2019-03-21T02:36:49.412Z,11.90
2019-03-21T02:37:49.263Z,11.10
2019-03-21T02:38:49.178Z,11.10
2019-03-21T02:39:59.353Z,10.60
2019-03-21T02:40:49.002Z,12.90
2019-03-21T02:41:48.930Z,10.70
2019-03-21T02:42:49.025Z,11.80
2019-03-21T02:43:48.743Z,13.50
2019-03-21T02:44:48.798Z,11.00
2019-03-21T02:45:48.603Z,11.40
2019-03-21T02:46:48.503Z,12.00
2019-03-21T02:47:48.405Z,11.10
2019-03-21T02:48:48.418Z,11.20
2019-03-21T02:49:48.230Z,13.40
2019-03-21T02:50:48.227Z,10.90
2019-03-21T02:51:48.074Z,11.00
2019-03-21T02:52:48.038Z,13.00
2019-03-21T02:53:47.889Z,15.70
2019-03-21T02:54:47.844Z,10.60
2019-03-21T02:55:47.706Z,10.60
2019-03-21T02:56:47.687Z,10.80
2019-03-21T02:57:47.538Z,11.10
2019-03-21T02:58:47.454Z,12.00
2019-03-21T02:59:47.468Z,12.10
2019-03-21T03:00:47.281Z,11.20
2019-03-21T03:01:47.206Z,11.90
2019-03-21T03:02:47.294Z,12.40
2019-03-21T03:03:47.030Z,12.40
2019-03-21T03:04:47.091Z,16.90
2019-03-21T03:05:46.842Z,15.10
2019-03-21T03:06:46.928Z,14.60
2019-03-21T03:07:46.673Z,14.00
2019-03-21T03:08:46.711Z,13.10
2019-03-21T03:09:46.500Z,11.10
2019-03-21T03:10:46.521Z,11.30
2019-03-21T03:11:46.358Z,13.40
2019-03-21T03:12:46.326Z,13.70
2019-03-21T03:13:46.154Z,14.00
2019-03-21T03:14:46.134Z,12.10
2019-03-21T03:15:45.982Z,11.90
2019-03-21T03:16:45.973Z,12.70
2019-03-21T03:17:45.812Z,12.20
2019-03-21T03:18:45.752Z,12.20
2019-03-21T03:19:45.634Z,13.00
2019-03-21T03:20:45.773Z,14.20
2019-03-21T03:21:45.483Z,12.10
2019-03-21T03:22:45.380Z,13.00
2019-03-21T03:23:45.374Z,10.60
2019-03-21T03:24:45.208Z,10.40
2019-03-21T03:25:45.116Z,12.40
2019-03-21T03:26:45.219Z,13.70
2019-03-21T03:27:44.943Z,16.10
2019-03-21T03:28:44.862Z,13.50
2019-03-21T03:29:44.774Z,12.80
2019-03-21T03:30:44.808Z,12.50
2019-03-21T03:31:44.612Z,13.10
2019-03-21T03:32:44.528Z,13.90
2019-03-21T03:33:44.423Z,13.80
2019-03-21T03:34:44.439Z,11.30
2019-03-21T03:35:44.251Z,11.80
2019-03-21T03:36:44.232Z,16.10
2019-03-21T03:37:44.092Z,15.10
2019-03-21T03:38:43.992Z,14.00
2019-03-21T03:39:43.924Z,12.10
2019-03-21T03:40:43.819Z,12.90
2019-03-21T03:41:43.739Z,13.90
2019-03-21T03:42:43.693Z,11.20
2019-03-21T03:43:43.558Z,11.30
2019-03-21T03:44:43.479Z,11.90
2019-03-21T03:45:43.475Z,14.70
2019-03-21T03:46:43.298Z,14.50
2019-03-21T03:47:43.228Z,11.60
2019-03-21T03:48:43.288Z,11.50
2019-03-21T03:49:43.039Z,11.20
2019-03-21T03:50:42.956Z,13.70
2019-03-21T03:51:42.899Z,12.60
2019-03-21T03:52:42.801Z,12.20
2019-03-21T03:53:42.880Z,11.00
2019-03-21T03:54:42.712Z,11.30
2019-03-21T03:55:42.589Z,11.70
2019-03-21T03:56:42.525Z,12.80
2019-03-21T03:57:42.368Z,11.60
2019-03-21T03:58:42.261Z,12.50
2019-03-21T03:59:42.396Z,11.50
2019-03-21T04:00:42.105Z,12.40
2019-03-21T04:01:42.006Z,13.50
2019-03-21T04:02:42.081Z,11.70
2019-03-21T04:03:41.838Z,11.80
2019-03-21T04:04:41.749Z,11.30
2019-03-21T04:05:41.761Z,12.60
2019-03-21T04:06:41.592Z,14.00
2019-03-21T04:07:41.505Z,11.40
2019-03-21T04:08:41.580Z,13.90
2019-03-21T04:09:41.309Z,14.00
2019-03-21T04:10:41.384Z,13.80
2019-03-21T04:11:41.137Z,12.90
2019-03-21T04:12:41.225Z,12.70
2019-03-21T04:13:40.958Z,11.20
2019-03-21T04:14:40.876Z,11.80
2019-03-21T04:15:51.677Z,12.70
2019-03-21T04:16:40.715Z,14.00
2019-03-21T04:17:40.628Z,13.20
2019-03-21T04:18:40.673Z,13.20
2019-03-21T04:19:40.447Z,11.20
2019-03-21T04:20:40.360Z,13.20
2019-03-21T04:21:40.437Z,12.00
2019-03-21T04:22:40.197Z,15.40
2019-03-21T04:23:40.094Z,12.30
2019-03-21T04:24:40.062Z,13.70
2019-03-21T04:25:39.922Z,13.10
2019-03-21T04:26:39.839Z,14.10
2019-03-21T04:27:39.888Z,13.20
2019-03-21T04:28:39.662Z,13.30
2019-03-21T04:29:39.585Z,11.90
2019-03-21T04:30:39.674Z,12.50
2019-03-21T04:31:39.401Z,13.90
2019-03-21T04:32:39.335Z,14.40
2019-03-21T04:33:39.285Z,12.40
2019-03-21T04:34:39.153Z,13.90
2019-03-21T04:35:39.094Z,12.40
2019-03-21T04:36:38.970Z,13.40
2019-03-21T04:37:38.936Z,13.10
2019-03-21T04:38:38.803Z,13.50
2019-03-21T04:39:38.917Z,14.30
2019-03-21T04:40:38.684Z,12.70
2019-03-21T04:41:38.725Z,14.60
2019-03-21T04:42:38.477Z,12.70
2019-03-21T04:43:38.534Z,11.70
2019-03-21T04:44:38.279Z,13.70
2019-03-21T04:45:38.345Z,12.80
2019-03-21T04:46:38.098Z,14.90
2019-03-21T04:47:38.183Z,12.70
2019-03-21T04:48:37.932Z,14.00
2019-03-21T04:49:37.958Z,13.40
2019-03-21T04:50:37.753Z,12.10
2019-03-21T04:51:37.768Z,12.60
2019-03-21T04:52:37.599Z,13.90
2019-03-21T04:53:37.573Z,12.80
2019-03-21T04:54:37.411Z,14.80
2019-03-21T04:55:37.383Z,13.10
2019-03-21T04:56:37.240Z,14.10
2019-03-21T04:57:37.223Z,15.50
2019-03-21T04:58:37.059Z,13.00
2019-03-21T04:59:36.980Z,13.90
2019-03-21T05:00:37.007Z,14.10
2019-03-21T05:01:36.806Z,14.10
2019-03-21T05:02:36.725Z,13.50
2019-03-21T05:03:36.829Z,16.60
2019-03-21T05:04:36.568Z,14.40
2019-03-21T05:05:36.456Z,14.20
2019-03-21T05:06:36.363Z,13.50
2019-03-21T05:07:36.476Z,16.10
2019-03-21T05:08:36.187Z,14.10
2019-03-21T05:09:36.111Z,14.20
2019-03-21T05:10:36.010Z,15.60
2019-03-21T05:11:36.060Z,16.90
2019-03-21T05:12:35.882Z,13.80
2019-03-21T05:13:35.870Z,13.50
2019-03-21T05:14:35.691Z,15.40
2019-03-21T05:15:35.588Z,15.60
2019-03-21T05:16:35.518Z,17.20
2019-03-21T05:17:35.412Z,18.10
2019-03-21T05:18:35.333Z,15.80
2019-03-21T05:19:35.336Z,17.20
2019-03-21T05:20:35.150Z,16.00
2019-03-21T05:21:35.060Z,16.80
2019-03-21T05:22:35.047Z,15.50
2019-03-21T05:23:34.902Z,15.50
2019-03-21T05:24:34.820Z,16.10
2019-03-21T05:25:34.759Z,18.20
2019-03-21T05:26:34.625Z,17.20
2019-03-21T05:27:34.537Z,17.60
2019-03-21T05:28:34.507Z,15.50
2019-03-21T05:29:34.364Z,16.10
2019-03-21T05:30:34.284Z,21.70
2019-03-21T05:31:34.196Z,17.30
2019-03-21T05:32:34.106Z,18.10
2019-03-21T05:33:34.034Z,18.10
2019-03-21T05:34:33.932Z,19.30
2019-03-21T05:35:33.850Z,20.10
2019-03-21T05:36:33.767Z,21.90
2019-03-21T05:37:33.669Z,25.60
2019-03-21T05:38:33.595Z,32.80
2019-03-21T05:39:33.508Z,39.40
2019-03-21T05:40:33.416Z,33.20
2019-03-21T05:41:33.336Z,31.80
2019-03-21T05:42:33.237Z,31.50
2019-03-21T05:43:33.169Z,28.90
2019-03-21T05:44:33.071Z,28.00
2019-03-21T05:45:32.974Z,29.40
2019-03-21T05:46:32.896Z,29.00
2019-03-21T05:47:32.804Z,31.90
2019-03-21T05:48:32.727Z,28.00
2019-03-21T05:49:32.639Z,27.40
2019-03-21T05:50:32.541Z,25.30
2019-03-21T05:51:32.462Z,27.00
2019-03-21T05:52:32.378Z,23.60
2019-03-21T05:53:32.295Z,24.30
2019-03-21T05:54:32.196Z,24.50
2019-03-21T05:55:32.114Z,22.80
2019-03-21T05:56:32.016Z,22.50
2019-03-21T05:57:31.940Z,23.80
2019-03-21T05:58:31.858Z,24.40
2019-03-21T05:59:31.774Z,22.20
2019-03-21T06:00:31.673Z,24.10
2019-03-21T06:01:31.594Z,24.40
2019-03-21T06:02:31.501Z,23.80
2019-03-21T06:03:31.434Z,21.30
2019-03-21T06:04:31.329Z,24.20
2019-03-21T06:05:31.242Z,27.30
2019-03-21T06:06:31.158Z,25.50
2019-03-21T06:07:31.062Z,21.20
2019-03-21T06:08:30.998Z,24.00
2019-03-21T06:09:30.909Z,23.20
2019-03-21T06:10:30.809Z,21.80
2019-03-21T06:11:30.731Z,28.30
2019-03-21T06:12:30.640Z,25.10
2019-03-21T06:13:30.570Z,24.80
2019-03-21T06:14:30.462Z,24.00
2019-03-21T06:15:30.385Z,25.40
2019-03-21T06:16:37.557Z,23.80
2019-03-21T06:17:30.209Z,22.60
2019-03-21T06:18:30.127Z,23.20
2019-03-21T06:19:30.032Z,26.20
2019-03-21T06:20:29.956Z,26.40
2019-03-21T06:21:29.861Z,26.70
2019-03-21T06:22:29.768Z,28.20
2019-03-21T06:23:29.702Z,24.30
2019-03-21T06:24:29.599Z,24.80
2019-03-21T06:25:29.508Z,35.60
2019-03-21T06:26:29.429Z,32.30
2019-03-21T06:27:29.337Z,27.10
2019-03-21T06:28:29.268Z,30.40
2019-03-21T06:29:29.175Z,28.90
2019-03-21T06:30:29.083Z,27.20
2019-03-21T06:31:28.990Z,28.60
2019-03-21T06:32:28.955Z,24.80
2019-03-21T06:33:28.841Z,28.10
2019-03-21T06:34:28.741Z,29.00
2019-03-21T06:35:28.654Z,28.00
2019-03-21T06:36:28.580Z,29.90
2019-03-21T06:37:29.069Z,30.90
2019-03-21T06:38:28.404Z,31.80
2019-03-21T06:39:28.309Z,33.50
2019-03-21T06:40:28.233Z,28.70
2019-03-21T06:41:28.140Z,31.20
2019-03-21T06:42:28.056Z,28.40
2019-03-21T06:43:27.986Z,24.80
2019-03-21T06:44:27.895Z,27.50
2019-03-21T06:45:27.791Z,27.50
2019-03-21T06:46:27.708Z,27.30
2019-03-21T06:47:27.627Z,23.10
2019-03-21T06:48:27.542Z,22.50
2019-03-21T06:49:27.462Z,27.80
2019-03-21T06:50:27.364Z,25.50
2019-03-21T06:51:27.285Z,26.80
2019-03-21T06:52:27.196Z,24.40
2019-03-21T06:53:27.108Z,24.30
2019-03-21T06:54:27.036Z,25.20
2019-03-21T06:55:26.957Z,22.50
2019-03-21T06:56:26.896Z,23.00
2019-03-21T06:57:26.789Z,20.00
2019-03-21T06:58:26.688Z,19.90
2019-03-21T06:59:26.632Z,22.00
2019-03-21T07:00:26.522Z,25.10
2019-03-21T07:01:26.447Z,21.80
2019-03-21T07:02:26.366Z,19.30
2019-03-21T07:03:26.327Z,21.10
2019-03-21T07:04:26.208Z,18.60
2019-03-21T07:05:26.841Z,19.70
2019-03-21T07:06:26.023Z,17.90
2019-03-21T07:07:25.942Z,21.70
2019-03-21T07:08:25.867Z,16.60
2019-03-21T07:09:25.793Z,17.70
2019-03-21T07:10:25.699Z,17.70
2019-03-21T07:11:25.618Z,18.80
2019-03-21T07:12:25.535Z,16.60
2019-03-21T07:13:25.453Z,17.80
2019-03-21T07:14:25.404Z,17.10
2019-03-21T07:15:25.280Z,16.10
2019-03-21T07:16:25.203Z,16.60
2019-03-21T07:17:25.130Z,16.40
2019-03-21T07:18:25.036Z,16.20
2019-03-21T07:19:24.981Z,17.90
2019-03-21T07:20:24.880Z,15.90
2019-03-21T07:21:24.792Z,16.70
2019-03-21T07:22:24.713Z,15.00
2019-03-21T07:23:24.684Z,17.40
2019-03-21T07:24:24.569Z,19.70
2019-03-21T07:25:24.463Z,15.50
2019-03-21T07:26:24.383Z,14.90
2019-03-21T07:27:24.312Z,15.10
2019-03-21T07:28:24.229Z,19.00
2019-03-21T07:29:24.159Z,52.60
2019-03-21T07:30:24.071Z,20.80
2019-03-21T07:31:23.981Z,17.80
2019-03-21T07:32:33.102Z,41.70
2019-03-21T07:33:23.832Z,17.60
2019-03-21T07:34:23.752Z,16.60
2019-03-21T07:35:23.654Z,16.30
2019-03-21T07:36:26.070Z,16.10
2019-03-21T07:37:23.492Z,17.10
2019-03-21T07:38:23.414Z,16.20
2019-03-21T07:39:23.357Z,15.30
2019-03-21T07:40:23.250Z,17.00
2019-03-21T07:41:23.169Z,15.50
2019-03-21T07:42:23.142Z,15.90
2019-03-21T07:43:23.007Z,14.60
2019-03-21T07:44:22.948Z,14.50
2019-03-21T07:45:22.851Z,16.00
2019-03-21T07:46:22.765Z,13.90
2019-03-21T07:47:22.693Z,14.80
2019-03-21T07:48:22.621Z,13.40
2019-03-21T07:49:22.547Z,14.20
2019-03-21T07:50:22.451Z,15.30
2019-03-21T07:51:22.367Z,15.40
2019-03-21T07:52:22.295Z,14.00
2019-03-21T07:53:22.288Z,15.30
2019-03-21T07:54:22.138Z,17.20
2019-03-21T07:55:22.048Z,13.70
2019-03-21T07:56:21.981Z,13.90
2019-03-21T07:57:21.886Z,14.40
2019-03-21T07:58:21.806Z,13.30
2019-03-21T07:59:21.753Z,17.20
2019-03-21T08:00:21.652Z,14.10
2019-03-21T08:01:21.569Z,14.90
2019-03-21T08:02:21.502Z,12.50
2019-03-21T08:03:21.412Z,14.00
2019-03-21T08:04:21.345Z,12.90
2019-03-21T08:05:21.255Z,14.40
2019-03-21T08:06:21.170Z,14.90
2019-03-21T08:07:21.097Z,14.40
2019-03-21T08:08:21.027Z,13.30
2019-03-21T08:09:20.946Z,14.90
2019-03-21T08:10:20.870Z,18.40
2019-03-21T08:11:20.777Z,11.80
2019-03-21T08:12:20.707Z,13.40
2019-03-21T08:13:20.616Z,12.20
2019-03-21T08:14:20.582Z,13.50
2019-03-21T08:15:20.464Z,13.20
2019-03-21T08:16:20.406Z,14.10
2019-03-21T08:17:20.305Z,12.70
2019-03-21T08:18:20.237Z,11.80
2019-03-21T08:19:20.151Z,13.30
2019-03-21T08:20:20.090Z,15.30
2019-03-21T08:21:19.991Z,13.60
2019-03-21T08:22:19.912Z,12.10
2019-03-21T08:23:19.844Z,12.80
2019-03-21T08:24:19.757Z,12.70
2019-03-21T08:25:19.690Z,11.90
2019-03-21T08:26:19.605Z,12.30
2019-03-21T08:27:19.522Z,12.70
2019-03-21T08:28:19.444Z,13.60
2019-03-21T08:29:19.371Z,14.10
2019-03-21T08:30:19.302Z,15.30
2019-03-21T08:31:19.211Z,13.70
2019-03-21T08:32:19.145Z,12.10
2019-03-21T08:33:19.062Z,12.30
2019-03-21T08:34:18.986Z,14.70
2019-03-21T08:35:18.914Z,11.60
2019-03-21T08:36:18.830Z,10.80
2019-03-21T08:37:18.758Z,13.70
2019-03-21T08:38:18.677Z,12.40
2019-03-21T08:39:18.606Z,13.40
2019-03-21T08:40:18.543Z,11.80
2019-03-21T08:41:18.444Z,12.30
2019-03-21T08:42:18.363Z,11.50
2019-03-21T08:43:18.298Z,17.40
2019-03-21T08:44:18.210Z,12.20
2019-03-21T08:45:18.138Z,15.90
2019-03-21T08:46:18.053Z,14.40
2019-03-21T08:47:17.978Z,13.20
2019-03-21T08:48:17.898Z,15.90
2019-03-21T08:49:17.831Z,11.50
2019-03-21T08:50:17.756Z,11.70
2019-03-21T08:51:17.658Z,11.60
2019-03-21T08:52:17.597Z,13.50
2019-03-21T08:53:17.510Z,12.50
2019-03-21T08:54:17.460Z,12.10
2019-03-21T08:55:17.368Z,12.40
2019-03-21T08:56:17.284Z,13.20
2019-03-21T08:57:17.195Z,12.60
2019-03-21T08:58:17.130Z,17.70
2019-03-21T08:59:17.039Z,15.70
2019-03-21T09:00:16.988Z,15.60
2019-03-21T09:01:16.887Z,73.50
2019-03-21T09:02:16.819Z,16.20
2019-03-21T09:03:16.734Z,12.80
2019-03-21T09:04:16.660Z,11.50
2019-03-21T09:05:16.590Z,15.10
2019-03-21T09:06:16.506Z,12.30
2019-03-21T09:07:16.426Z,15.30
2019-03-21T09:08:16.359Z,11.90
2019-03-21T09:09:16.275Z,12.20
2019-03-21T09:10:16.221Z,13.40
2019-03-21T09:11:16.127Z,12.30
2019-03-21T09:12:16.041Z,11.30
2019-03-21T09:13:15.968Z,11.20
2019-03-21T09:14:15.896Z,13.20
2019-03-21T09:15:15.835Z,10.70
2019-03-21T09:16:15.740Z,12.00
2019-03-21T09:17:15.668Z,11.50
2019-03-21T09:18:15.592Z,11.20
2019-03-21T09:19:15.523Z,10.60
2019-03-21T09:20:15.454Z,13.30
2019-03-21T09:21:20.041Z,12.30
2019-03-21T09:22:16.125Z,12.30
2019-03-21T09:23:15.228Z,13.80
2019-03-21T09:24:15.146Z,11.30
2019-03-21T09:25:15.087Z,11.60
2019-03-21T09:26:14.985Z,12.60
2019-03-21T09:27:14.911Z,11.70
2019-03-21T09:28:14.850Z,10.80
2019-03-21T09:29:14.770Z,10.30
2019-03-21T09:30:14.708Z,10.50
2019-03-21T09:31:14.621Z,11.40
2019-03-21T09:32:14.644Z,12.60
2019-03-21T09:33:14.468Z,11.50
2019-03-21T09:34:14.395Z,11.90
2019-03-21T09:35:14.326Z,12.10
2019-03-21T09:36:14.243Z,11.20
2019-03-21T09:37:14.173Z,12.80
2019-03-21T09:38:14.089Z,10.30
2019-03-21T09:39:14.017Z,10.20
2019-03-21T09:40:13.955Z,10.70
2019-03-21T09:41:13.868Z,11.10
2019-03-21T09:42:13.855Z,12.10
2019-03-21T09:43:13.722Z,11.40
2019-03-21T09:44:13.642Z,10.50
2019-03-21T09:45:13.599Z,11.00
2019-03-21T09:46:13.497Z,10.50
2019-03-21T09:47:13.429Z,10.10
2019-03-21T09:48:13.357Z,10.50
2019-03-21T09:49:13.275Z,11.00
2019-03-21T09:50:13.235Z,10.40
2019-03-21T09:51:13.131Z,11.00
2019-03-21T09:52:13.065Z,9.70
2019-03-21T09:53:12.989Z,11.20
2019-03-21T09:54:12.915Z,11.20
2019-03-21T09:55:12.853Z,10.20
2019-03-21T09:56:12.775Z,9.50
2019-03-21T09:57:12.700Z,9.70
2019-03-21T09:58:12.618Z,9.90
2019-03-21T09:59:12.554Z,9.90
2019-03-21T10:00:12.487Z,13.00
2019-03-21T10:01:12.407Z,10.70
2019-03-21T10:02:12.335Z,11.80
2019-03-21T10:03:12.260Z,11.00
2019-03-21T10:04:12.190Z,9.50
2019-03-21T10:05:12.145Z,10.00
2019-03-21T10:06:12.043Z,8.90
2019-03-21T10:07:11.976Z,13.60
2019-03-21T10:08:11.911Z,9.50
2019-03-21T10:09:11.827Z,12.40
2019-03-21T10:10:11.795Z,9.80
2019-03-21T10:11:11.682Z,16.70
2019-03-21T10:12:11.618Z,13.30
2019-03-21T10:13:11.546Z,10.60
2019-03-21T10:14:11.483Z,10.00
2019-03-21T10:15:11.398Z,14.40
2019-03-21T10:16:11.362Z,12.50
2019-03-21T10:17:11.253Z,9.20
2019-03-21T10:18:11.201Z,9.80
2019-03-21T10:19:11.109Z,10.40
2019-03-21T10:20:11.046Z,10.30
2019-03-21T10:21:10.993Z,9.80
2019-03-21T10:22:10.897Z,11.00
2019-03-21T10:23:10.823Z,11.00
2019-03-21T10:24:10.766Z,9.90
2019-03-21T10:25:10.684Z,11.80
2019-03-21T10:26:10.624Z,11.90
2019-03-21T10:27:10.547Z,11.00
2019-03-21T10:28:10.465Z,10.30
2019-03-21T10:29:10.403Z,10.20
2019-03-21T10:30:10.395Z,10.20
2019-03-21T10:31:10.282Z,9.50
2019-03-21T10:32:14.515Z,9.80
2019-03-21T10:33:10.117Z,10.70
2019-03-21T10:34:10.040Z,8.80
2019-03-21T10:35:09.997Z,11.20
2019-03-21T10:36:09.911Z,10.20
2019-03-21T10:37:09.833Z,9.40
2019-03-21T10:38:09.759Z,9.60
2019-03-21T10:39:09.715Z,9.40
2019-03-21T10:40:09.611Z,10.40
2019-03-21T10:41:09.563Z,10.70
2019-03-21T10:42:09.466Z,9.90
2019-03-21T10:43:10.528Z,10.10
2019-03-21T10:44:09.342Z,9.40
2019-03-21T10:45:09.250Z,10.00
2019-03-21T10:46:09.216Z,9.40
2019-03-21T10:47:09.106Z,9.90
2019-03-21T10:48:09.045Z,10.00
2019-03-21T10:49:08.967Z,10.90
2019-03-21T10:50:08.898Z,10.80
2019-03-21T10:51:08.844Z,11.10
2019-03-21T10:52:08.764Z,11.00
2019-03-21T10:53:08.683Z,10.50
2019-03-21T10:54:08.603Z,11.00
2019-03-21T10:55:08.542Z,11.00
2019-03-21T10:56:08.484Z,11.60
2019-03-21T10:57:08.388Z,11.70
2019-03-21T10:58:08.336Z,11.70
2019-03-21T10:59:08.256Z,10.40
2019-03-21T11:00:08.178Z,12.40
2019-03-21T11:01:08.120Z,14.80
2019-03-21T11:02:08.027Z,12.00
2019-03-21T11:03:07.967Z,16.70
2019-03-21T11:04:07.898Z,15.40
2019-03-21T11:05:07.816Z,11.70
2019-03-21T11:06:07.769Z,9.80
2019-03-21T11:07:07.672Z,9.10
2019-03-21T11:08:07.604Z,12.40
2019-03-21T11:09:07.528Z,12.50
2019-03-21T11:10:07.457Z,11.00
2019-03-21T11:11:07.398Z,12.30
2019-03-21T11:12:07.311Z,11.00
2019-03-21T11:13:07.233Z,9.10
2019-03-21T11:14:07.172Z,9.50
2019-03-21T11:15:07.086Z,9.40
2019-03-21T11:16:07.037Z,9.90
2019-03-21T11:17:06.947Z,10.70
2019-03-21T11:18:06.877Z,11.30
2019-03-21T11:19:06.798Z,11.40
2019-03-21T11:20:06.736Z,9.70
2019-03-21T11:21:06.671Z,10.30
2019-03-21T11:22:06.858Z,10.30
2019-03-21T11:23:06.520Z,10.20
2019-03-21T11:24:06.434Z,9.80
2019-03-21T11:25:06.377Z,9.80
2019-03-21T11:26:06.305Z,7.90
2019-03-21T11:27:06.219Z,8.90
2019-03-21T11:28:06.153Z,8.70
2019-03-21T11:29:06.090Z,9.70
2019-03-21T11:30:15.705Z,10.00
2019-03-21T11:31:05.957Z,9.00
2019-03-21T11:32:05.875Z,10.60
2019-03-21T11:33:05.788Z,11.20
2019-03-21T11:34:05.725Z,12.30
2019-03-21T11:35:05.648Z,12.10
2019-03-21T11:36:05.601Z,12.00
2019-03-21T11:37:05.499Z,10.90
2019-03-21T11:38:05.441Z,12.60
2019-03-21T11:39:05.361Z,11.70
2019-03-21T11:40:05.363Z,11.80
2019-03-21T11:41:05.226Z,9.90
2019-03-21T11:42:05.226Z,10.50
2019-03-21T11:43:05.085Z,10.10
2019-03-21T11:44:05.003Z,11.00
2019-03-21T11:45:04.928Z,10.80
2019-03-21T11:46:04.876Z,11.80
2019-03-21T11:47:04.782Z,12.70
2019-03-21T11:48:04.715Z,15.50
2019-03-21T11:49:04.639Z,12.90
2019-03-21T11:50:04.578Z,13.80
2019-03-21T11:51:04.521Z,11.20
2019-03-21T11:52:04.426Z,19.00
2019-03-21T11:53:04.356Z,12.30
2019-03-21T11:54:04.292Z,11.50
2019-03-21T11:55:04.207Z,11.00
2019-03-21T11:56:04.181Z,11.10
2019-03-21T11:57:04.061Z,10.80
2019-03-21T11:58:03.998Z,11.50
2019-03-21T11:59:03.921Z,11.10
2019-03-21T12:00:03.844Z,11.10
2019-03-21T12:01:03.778Z,11.90
2019-03-21T12:02:03.712Z,12.00
2019-03-21T12:03:04.358Z,11.20
2019-03-21T12:04:03.570Z,10.90
2019-03-21T12:05:03.483Z,11.80
2019-03-21T12:06:03.423Z,10.80
2019-03-21T12:07:03.358Z,11.40
2019-03-21T12:08:03.278Z,11.20
2019-03-21T12:09:03.198Z,11.80
2019-03-21T12:10:03.125Z,10.90
2019-03-21T12:11:03.061Z,10.40
2019-03-21T12:12:03.041Z,10.80
2019-03-21T12:13:02.906Z,11.50
2019-03-21T12:14:02.839Z,11.20
2019-03-21T12:15:02.765Z,11.70
2019-03-21T12:16:02.698Z,10.70
2019-03-21T12:17:02.679Z,15.10
2019-03-21T12:18:02.562Z,10.80
2019-03-21T12:19:02.479Z,10.80
2019-03-21T12:20:02.399Z,10.50
2019-03-21T12:21:02.331Z,10.50
2019-03-21T12:22:02.283Z,11.30
2019-03-21T12:23:02.186Z,11.80
2019-03-21T12:24:02.124Z,13.00
2019-03-21T12:25:02.048Z,11.90
2019-03-21T12:26:01.971Z,11.70
2019-03-21T12:27:01.918Z,12.00
2019-03-21T12:28:01.850Z,12.20
2019-03-21T12:29:01.764Z,12.30
2019-03-21T12:30:01.696Z,12.70
2019-03-21T12:31:01.606Z,11.60
2019-03-21T12:32:01.553Z,11.50
2019-03-21T12:33:01.467Z,12.50
2019-03-21T12:34:01.396Z,12.20
2019-03-21T12:35:01.342Z,13.20
2019-03-21T12:36:01.243Z,12.80
2019-03-21T12:37:01.202Z,12.60
2019-03-21T12:38:01.106Z,13.10
2019-03-21T12:39:01.040Z,11.60
2019-03-21T12:40:00.956Z,11.50
2019-03-21T12:41:00.885Z,11.90
2019-03-21T12:42:00.834Z,12.60
2019-03-21T12:43:00.743Z,11.70
2019-03-21T12:44:00.677Z,10.40
2019-03-21T12:45:00.601Z,9.70
2019-03-21T12:46:00.521Z,9.50
2019-03-21T12:47:00.464Z,9.50
2019-03-21T12:48:00.394Z,10.50
2019-03-21T12:49:00.305Z,10.70
2019-03-21T12:50:00.346Z,10.40
2019-03-21T12:51:00.173Z,10.90
2019-03-21T12:52:00.129Z,10.00
2019-03-21T12:53:00.030Z,10.00